createdAt,value
2023-02-20T00:00:30.641Z,102108.25
2023-02-20T00:02:57.639Z,102105.34
2023-02-20T00:05:24.595Z,102094.78
2023-02-20T00:07:51.149Z,102083.22
2023-02-20T00:10:18.475Z,102066.25
2023-02-20T00:12:45.105Z,102058.28
2023-02-20T00:15:14.543Z,102060.97
2023-02-20T00:17:43.325Z,102043.19
2023-02-20T00:20:10.422Z,102041.50
2023-02-20T00:22:37.073Z,102030.66
2023-02-20T00:25:03.650Z,102027.09
2023-02-20T00:27:30.293Z,102040.53
2023-02-20T00:29:56.855Z,102038.66
2023-02-20T00:32:23.410Z,102030.56
2023-02-20T00:34:49.981Z,102028.91
2023-02-20T00:37:16.575Z,102015.53
2023-02-20T00:39:43.147Z,102015.44
2023-02-20T00:42:09.781Z,102017.22
2023-02-20T00:44:36.322Z,102026.09
2023-02-20T00:47:02.889Z,102018.88
2023-02-20T00:49:29.506Z,102023.31
2023-02-20T00:51:56.066Z,102020.69
2023-02-20T00:54:22.645Z,102019.81
2023-02-20T00:56:49.273Z,102009.22
2023-02-20T00:59:15.855Z,101996.69
2023-02-20T01:01:42.590Z,101996.66
2023-02-20T01:04:09.219Z,101999.31
2023-02-20T01:06:35.776Z,101996.69
2023-02-20T01:09:02.376Z,101993.09
2023-02-20T01:11:28.954Z,102005.56
2023-02-20T01:13:55.546Z,101993.13
2023-02-20T01:16:22.184Z,101989.47
2023-02-20T01:18:50.981Z,101977.00
2023-02-20T01:21:17.666Z,101973.47
2023-02-20T01:23:44.252Z,101953.84
2023-02-20T01:26:12.723Z,101955.66
2023-02-20T01:28:39.605Z,101945.00
2023-02-20T01:31:07.412Z,101950.31
2023-02-20T01:33:34.070Z,101948.56
2023-02-20T01:36:00.668Z,101939.66
2023-02-20T01:38:27.249Z,101934.31
2023-02-20T01:40:53.851Z,101927.19
2023-02-20T01:43:20.491Z,101926.31
2023-02-20T01:45:47.160Z,101922.72
2023-02-20T01:48:22.494Z,101912.91
2023-02-20T01:50:51.285Z,101908.44
2023-02-20T01:53:21.071Z,101891.63
2023-02-20T01:55:53.470Z,101881.78
2023-02-20T01:58:43.954Z,101891.56
2023-02-20T02:01:11.453Z,101894.25
2023-02-20T02:03:41.947Z,101888.97
2023-02-20T02:06:10.166Z,101886.22
2023-02-20T02:08:38.054Z,101893.34
2023-02-20T02:11:11.752Z,101895.94
2023-02-20T02:13:39.375Z,101895.09
2023-02-20T02:16:31.754Z,101884.38
2023-02-20T02:19:17.983Z,101871.09
2023-02-20T02:22:05.466Z,101863.97
2023-02-20T02:25:00.433Z,101866.69
2023-02-20T02:28:08.212Z,101871.88
2023-02-20T02:30:56.669Z,101864.75
2023-02-20T02:34:09.540Z,101879.03
2023-02-20T02:37:06.293Z,101879.09
2023-02-20T02:39:40.880Z,101860.38
2023-02-20T02:42:37.962Z,101866.59
2023-02-20T02:45:13.155Z,101847.03
2023-02-20T02:47:39.631Z,101840.84
2023-02-20T02:50:09.812Z,101844.28
2023-02-20T02:52:49.500Z,101842.56
2023-02-20T02:55:22.357Z,101838.09
2023-02-20T02:57:49.210Z,101839.84
2023-02-20T03:00:19.898Z,101825.63
2023-02-20T03:03:08.170Z,101817.66
2023-02-20T03:05:46.487Z,101822.91
2023-02-20T03:08:32.782Z,101821.16
2023-02-20T03:11:07.892Z,101812.25
2023-02-20T03:13:58.262Z,101814.97
2023-02-20T03:16:32.903Z,101803.31
2023-02-20T03:19:02.020Z,101807.84
2023-02-20T03:21:28.789Z,101817.63
2023-02-20T03:23:58.683Z,101804.28
2023-02-20T03:26:34.944Z,101788.31
2023-02-20T03:29:06.971Z,101793.56
2023-02-20T03:31:34.645Z,101797.09
2023-02-20T03:34:20.022Z,101795.44
2023-02-20T03:37:09.681Z,101792.72
2023-02-20T03:39:58.958Z,101793.56
2023-02-20T03:42:44.539Z,101808.69
2023-02-20T03:45:12.000Z,101791.75
2023-02-20T03:47:43.718Z,101786.38
2023-02-20T03:50:10.991Z,101798.91
2023-02-20T03:52:37.838Z,101783.84
2023-02-20T03:55:04.780Z,101785.56
2023-02-20T03:57:34.903Z,101782.06
2023-02-20T04:00:06.232Z,101788.31
2023-02-20T04:02:37.745Z,101784.66
2023-02-20T04:05:08.204Z,101779.31
2023-02-20T04:07:43.082Z,101775.72
2023-02-20T04:10:13.154Z,101765.91
2023-02-20T04:12:43.268Z,101768.56
2023-02-20T04:15:10.360Z,101770.38
2023-02-20T04:17:46.785Z,101760.66
2023-02-20T04:20:13.785Z,101752.66
2023-02-20T04:22:44.084Z,101751.66
2023-02-20T04:25:21.435Z,101749.94
2023-02-20T04:27:48.150Z,101752.66
2023-02-20T04:30:14.831Z,101734.00
2023-02-20T04:32:41.395Z,101732.16
2023-02-20T04:35:10.213Z,101742.00
2023-02-20T04:37:36.791Z,101737.53
2023-02-20T04:40:03.524Z,101727.75
2023-02-20T04:42:30.077Z,101727.66
2023-02-20T04:44:56.651Z,101735.72
2023-02-20T04:47:23.235Z,101731.25
2023-02-20T04:49:49.834Z,101725.94
2023-02-20T04:52:16.494Z,101716.09
2023-02-20T04:54:43.113Z,101715.22
2023-02-20T04:57:09.724Z,101708.09
2023-02-20T04:59:36.267Z,101714.28
2023-02-20T05:02:02.916Z,101708.09
2023-02-20T05:04:29.716Z,101704.56
2023-02-20T05:06:57.990Z,101706.41
2023-02-20T05:09:24.798Z,101696.63
2023-02-20T05:11:51.541Z,101696.56
2023-02-20T05:14:18.856Z,101697.44
2023-02-20T05:16:45.819Z,101694.75
2023-02-20T05:19:13.163Z,101689.41
2023-02-20T05:22:01.633Z,101700.91
2023-02-20T05:24:28.583Z,101694.69
2023-02-20T05:26:56.010Z,101689.44
2023-02-20T05:29:22.857Z,101701.00
2023-02-20T05:31:49.603Z,101684.97
2023-02-20T05:34:16.295Z,101689.44
2023-02-20T05:36:42.911Z,101683.16
2023-02-20T05:39:09.513Z,101690.28
2023-02-20T05:41:36.091Z,101685.94
2023-02-20T05:44:02.670Z,101700.16
2023-02-20T05:46:29.325Z,101702.69
2023-02-20T05:48:56.010Z,101709.81
2023-02-20T05:51:28.237Z,101704.50
2023-02-20T05:53:55.330Z,101702.69
2023-02-20T05:56:22.342Z,101709.88
2023-02-20T05:58:49.001Z,101706.28
2023-02-20T06:01:20.974Z,101707.97
2023-02-20T06:03:47.706Z,101702.59
2023-02-20T06:06:14.701Z,101695.56
2023-02-20T06:08:41.434Z,101699.09
2023-02-20T06:11:10.029Z,101704.44
2023-02-20T06:13:37.073Z,101706.22
2023-02-20T06:16:03.985Z,101704.41
2023-02-20T06:18:30.582Z,101711.53
2023-02-20T06:20:57.186Z,101712.38
2023-02-20T06:23:23.829Z,101725.78
2023-02-20T06:25:50.445Z,101708.88
2023-02-20T06:28:17.062Z,101707.94
2023-02-20T06:30:43.670Z,101698.22
2023-02-20T06:33:10.266Z,101697.28
2023-02-20T06:35:39.622Z,101707.09
2023-02-20T06:38:06.240Z,101714.09
2023-02-20T06:40:32.827Z,101707.94
2023-02-20T06:42:59.396Z,101709.69
2023-02-20T06:45:25.947Z,101707.97
2023-02-20T06:47:52.552Z,101709.75
2023-02-20T06:50:22.158Z,101710.69
2023-02-20T06:52:48.723Z,101713.28
2023-02-20T06:55:15.357Z,101718.59
2023-02-20T06:57:42.024Z,101708.81
2023-02-20T07:00:09.770Z,101718.53
2023-02-20T07:02:37.148Z,101720.34
2023-02-20T07:05:05.080Z,101730.47
2023-02-20T07:07:31.846Z,101728.06
2023-02-20T07:10:01.455Z,101730.00
2023-02-20T07:12:32.199Z,101730.19
2023-02-20T07:14:59.173Z,101747.28
2023-02-20T07:17:26.081Z,101737.72
2023-02-20T07:19:59.406Z,101732.53
2023-02-20T07:22:26.280Z,101746.09
2023-02-20T07:24:53.710Z,101745.31
2023-02-20T07:27:26.662Z,101737.38
2023-02-20T07:29:53.302Z,101743.66
2023-02-20T07:32:27.766Z,101732.94
2023-02-20T07:35:03.647Z,101732.97
2023-02-20T07:37:32.190Z,101729.38
2023-02-20T07:40:00.959Z,101734.75
2023-02-20T07:42:27.575Z,101732.06
2023-02-20T07:44:54.247Z,101740.09
2023-02-20T07:47:20.831Z,101729.41
2023-02-20T07:49:47.399Z,101732.94
2023-02-20T07:52:14.083Z,101730.25
2023-02-20T07:54:40.929Z,101718.66
2023-02-20T07:57:07.530Z,101723.09
2023-02-20T07:59:34.158Z,101717.75
2023-02-20T08:02:00.812Z,101731.09
2023-02-20T08:04:27.714Z,101726.66
2023-02-20T08:07:00.365Z,101729.28
2023-02-20T08:09:27.046Z,101716.78
2023-02-20T08:11:56.184Z,101722.13
2023-02-20T08:14:23.086Z,101716.78
2023-02-20T08:16:49.803Z,101716.75
2023-02-20T08:19:17.742Z,101718.53
2023-02-20T08:21:44.322Z,101713.16
2023-02-20T08:24:10.911Z,101704.22
2023-02-20T08:26:47.233Z,101706.03
2023-02-20T08:29:17.386Z,101687.31
2023-02-20T08:31:46.892Z,101695.34
2023-02-20T08:34:13.531Z,101711.28
2023-02-20T08:36:41.052Z,101686.41
2023-02-20T08:39:07.698Z,101693.47
2023-02-20T08:41:34.253Z,101706.84
2023-02-20T08:44:02.178Z,101709.50
2023-02-20T08:46:28.773Z,101706.81
2023-02-20T08:48:55.708Z,101715.69
2023-02-20T08:51:22.527Z,101718.41
2023-02-20T08:53:49.135Z,101709.50
2023-02-20T08:56:21.332Z,101707.69
2023-02-20T08:58:47.967Z,101709.47
2023-02-20T09:01:14.537Z,101701.44
2023-02-20T09:03:42.286Z,101703.19
2023-02-20T09:06:08.916Z,101700.50
2023-02-20T09:08:37.960Z,101709.41
2023-02-20T09:11:10.000Z,101721.88
2023-02-20T09:13:43.429Z,101711.19
2023-02-20T09:16:12.873Z,101721.81
2023-02-20T09:18:39.828Z,101719.19
2023-02-20T09:21:11.203Z,101717.34
2023-02-20T09:23:38.132Z,101713.78
2023-02-20T09:26:05.117Z,101696.88
2023-02-20T09:28:32.173Z,101707.53
2023-02-20T09:31:00.572Z,101697.75
2023-02-20T09:33:29.438Z,101705.72
2023-02-20T09:35:56.303Z,101698.56
2023-02-20T09:38:26.315Z,101709.22
2023-02-20T09:40:54.735Z,101703.91
2023-02-20T09:43:21.244Z,101702.09
2023-02-20T09:46:03.528Z,101700.34
2023-02-20T09:49:07.830Z,101700.34
2023-02-20T09:51:39.724Z,101707.44
2023-02-20T09:54:13.200Z,101703.03
2023-02-20T09:56:41.528Z,101697.59
2023-02-20T09:59:27.132Z,101682.50
2023-02-20T10:02:03.156Z,101683.41
2023-02-20T10:05:00.854Z,101710.09
2023-02-20T10:07:32.173Z,101728.78
2023-02-20T10:10:00.280Z,101733.19
2023-02-20T10:12:41.795Z,101720.75
2023-02-20T10:15:45.329Z,101685.19
2023-02-20T10:18:23.662Z,101686.06
2023-02-20T10:20:57.235Z,101705.56
2023-02-20T10:23:29.723Z,101727.91
2023-02-20T10:25:59.249Z,101716.28
2023-02-20T10:28:26.199Z,101712.72
2023-02-20T10:31:25.995Z,101706.47
2023-02-20T10:34:07.146Z,101715.41
2023-02-20T10:36:34.388Z,101705.63
2023-02-20T10:39:17.032Z,101721.63
2023-02-20T10:42:05.390Z,101728.72
2023-02-20T10:44:50.110Z,101728.69
2023-02-20T10:47:50.868Z,101723.38
2023-02-20T10:50:24.061Z,101715.31
2023-02-20T10:53:06.725Z,101709.16
2023-02-20T10:55:46.974Z,101705.53
2023-02-20T10:58:20.067Z,101713.56
2023-02-20T11:00:51.553Z,101715.28
2023-02-20T11:03:24.430Z,101713.38
2023-02-20T11:05:54.075Z,101714.25
2023-02-20T11:08:21.879Z,101706.25
2023-02-20T11:10:50.824Z,101713.41
2023-02-20T11:13:21.139Z,101706.19
2023-02-20T11:15:50.770Z,101714.97
2023-02-20T11:18:26.320Z,101708.66
2023-02-20T11:20:54.104Z,101717.59
2023-02-20T11:23:39.159Z,101715.91
2023-02-20T11:26:21.725Z,101719.44
2023-02-20T11:28:59.778Z,101725.69
2023-02-20T11:31:26.531Z,101712.31
2023-02-20T11:33:54.853Z,101708.78
2023-02-20T11:36:28.806Z,101700.72
2023-02-20T11:39:03.352Z,101697.19
2023-02-20T11:41:36.769Z,101697.22
2023-02-20T11:44:06.418Z,101700.78
2023-02-20T11:46:36.605Z,101699.91
2023-02-20T11:49:10.075Z,101713.31
2023-02-20T11:51:48.425Z,101708.81
2023-02-20T11:54:15.029Z,101710.53
2023-02-20T11:57:01.736Z,101712.38
2023-02-20T11:59:37.310Z,101712.31
2023-02-20T12:02:15.995Z,101710.56
2023-02-20T12:05:14.960Z,101712.31
2023-02-20T12:07:56.641Z,101692.75
2023-02-20T12:10:34.936Z,101692.72
2023-02-20T12:13:02.559Z,101692.78
2023-02-20T12:15:32.494Z,101689.22
2023-02-20T12:18:06.054Z,101674.97
2023-02-20T12:20:32.535Z,101665.16
2023-02-20T12:23:10.520Z,101658.97
2023-02-20T12:26:10.367Z,101657.28
2023-02-20T12:28:42.916Z,101671.53
2023-02-20T12:31:21.901Z,101666.09
2023-02-20T12:34:16.611Z,101680.44
2023-02-20T12:36:43.396Z,101662.56
2023-02-20T12:39:23.564Z,101666.09
2023-02-20T12:42:02.271Z,101672.44
2023-02-20T12:44:28.851Z,101670.63
2023-02-20T12:47:16.514Z,101667.97
2023-02-20T12:50:20.688Z,101647.53
2023-02-20T12:53:33.931Z,101634.94
2023-02-20T12:56:40.237Z,101639.41
2023-02-20T12:59:15.401Z,101630.53
2023-02-20T13:01:42.032Z,101640.41
2023-02-20T13:04:23.153Z,101650.22
2023-02-20T13:07:18.656Z,101638.69
2023-02-20T13:10:01.818Z,101640.44
2023-02-20T13:12:28.838Z,101647.56
2023-02-20T13:15:11.684Z,101657.38
2023-02-20T13:17:52.398Z,101657.41
2023-02-20T13:20:27.204Z,101655.63
2023-02-20T13:23:21.133Z,101655.63
2023-02-20T13:25:56.085Z,101652.16
2023-02-20T13:28:29.724Z,101668.16
2023-02-20T13:31:14.446Z,101650.41
2023-02-20T13:33:43.529Z,101657.47
2023-02-20T13:36:37.778Z,101648.59
2023-02-20T13:39:19.535Z,101646.78
2023-02-20T13:41:56.696Z,101640.50
2023-02-20T13:44:34.230Z,101631.66
2023-02-20T13:47:03.189Z,101646.78
2023-02-20T13:49:41.841Z,101646.78
2023-02-20T13:52:48.629Z,101645.91
2023-02-20T13:55:35.597Z,101649.47
2023-02-20T13:58:08.485Z,101642.31
2023-02-20T14:00:45.225Z,101629.00
2023-02-20T14:03:12.809Z,101626.41
2023-02-20T14:05:39.631Z,101633.47
2023-02-20T14:08:06.276Z,101633.47
2023-02-20T14:10:38.403Z,101634.41
2023-02-20T14:13:12.495Z,101628.16
2023-02-20T14:15:56.866Z,101625.50
2023-02-20T14:18:34.689Z,101626.31
2023-02-20T14:21:17.110Z,101628.97
2023-02-20T14:23:48.502Z,101629.03
2023-02-20T14:26:34.317Z,101633.50
2023-02-20T14:29:01.151Z,101637.09
2023-02-20T14:31:38.369Z,101639.75
2023-02-20T14:34:04.977Z,101641.50
2023-02-20T14:37:05.562Z,101641.50
2023-02-20T14:39:50.058Z,101644.19
2023-02-20T14:42:27.179Z,101638.84
2023-02-20T14:45:06.519Z,101628.22
2023-02-20T14:47:35.518Z,101639.78
2023-02-20T14:50:17.227Z,101640.69
2023-02-20T14:52:43.940Z,101630.88
2023-02-20T14:55:18.667Z,101629.13
2023-02-20T14:57:45.265Z,101628.19
2023-02-20T15:00:17.625Z,101614.88
2023-02-20T15:02:47.245Z,101606.00
2023-02-20T15:05:38.514Z,101606.03
2023-02-20T15:08:24.815Z,101592.69
2023-02-20T15:10:56.035Z,101610.44
2023-02-20T15:13:27.491Z,101600.66
2023-02-20T15:16:08.578Z,101602.38
2023-02-20T15:18:40.598Z,101611.31
2023-02-20T15:21:07.633Z,101608.66
2023-02-20T15:23:36.915Z,101606.03
2023-02-20T15:26:36.115Z,101599.81
2023-02-20T15:29:18.765Z,101607.81
2023-02-20T15:32:06.436Z,101603.31
2023-02-20T15:34:37.855Z,101605.03
2023-02-20T15:37:27.148Z,101598.84
2023-02-20T15:40:20.190Z,101616.63
2023-02-20T15:42:46.961Z,101613.97
2023-02-20T15:45:13.895Z,101617.56
2023-02-20T15:47:41.017Z,101604.22
2023-02-20T15:50:08.029Z,101613.13
2023-02-20T15:52:37.444Z,101622.06
2023-02-20T15:55:07.370Z,101623.78
2023-02-20T15:57:33.963Z,101617.56
2023-02-20T16:00:00.585Z,101621.97
2023-02-20T16:02:27.230Z,101616.66
2023-02-20T16:04:56.745Z,101617.53
2023-02-20T16:07:23.452Z,101623.78
2023-02-20T16:09:52.955Z,101632.66
2023-02-20T16:12:25.498Z,101618.44
2023-02-20T16:14:53.916Z,101623.78
2023-02-20T16:17:24.623Z,101623.78
2023-02-20T16:19:54.305Z,101618.47
2023-02-20T16:22:21.460Z,101613.09
2023-02-20T16:24:48.063Z,101604.16
2023-02-20T16:27:25.938Z,101614.81
2023-02-20T16:29:53.786Z,101609.47
2023-02-20T16:32:26.337Z,101613.13
2023-02-20T16:34:54.738Z,101624.66
2023-02-20T16:37:22.111Z,101624.66
2023-02-20T16:39:49.167Z,101622.84
2023-02-20T16:42:20.828Z,101620.28
2023-02-20T16:44:48.429Z,101616.78
2023-02-20T16:47:23.637Z,101625.69
2023-02-20T16:49:56.018Z,101625.69
2023-02-20T16:52:38.573Z,101627.47
2023-02-20T16:55:10.802Z,101633.72
2023-02-20T16:57:37.451Z,101630.97
2023-02-20T17:00:06.115Z,101639.03
2023-02-20T17:02:32.724Z,101638.19
2023-02-20T17:05:00.240Z,101640.84
2023-02-20T17:07:27.666Z,101641.75
2023-02-20T17:09:54.245Z,101638.25
2023-02-20T17:12:23.892Z,101630.19
2023-02-20T17:14:50.564Z,101632.84
2023-02-20T17:17:17.227Z,101637.31
2023-02-20T17:19:44.289Z,101638.16
2023-02-20T17:22:14.334Z,101642.63
2023-02-20T17:24:44.087Z,101639.94
2023-02-20T17:27:12.469Z,101640.81
2023-02-20T17:29:43.654Z,101638.13
2023-02-20T17:32:10.579Z,101649.72
2023-02-20T17:34:37.213Z,101652.34
2023-02-20T17:37:04.293Z,101648.78
2023-02-20T17:39:30.829Z,101663.06
2023-02-20T17:41:57.808Z,101654.13
2023-02-20T17:44:29.432Z,101663.13
2023-02-20T17:46:58.224Z,101658.66
2023-02-20T17:49:25.681Z,101666.63
2023-02-20T17:51:55.515Z,101663.13
2023-02-20T17:54:25.216Z,101666.69
2023-02-20T17:56:51.835Z,101666.63
2023-02-20T17:59:18.550Z,101666.66
2023-02-20T18:01:45.284Z,101677.38
2023-02-20T18:04:11.961Z,101673.81
2023-02-20T18:06:39.153Z,101666.72
2023-02-20T18:09:06.557Z,101668.47
2023-02-20T18:11:33.292Z,101673.81
2023-02-20T18:14:00.148Z,101671.09
2023-02-20T18:16:27.772Z,101672.00
2023-02-20T18:18:55.195Z,101668.47
2023-02-20T18:21:25.442Z,101676.47
2023-02-20T18:23:52.371Z,101677.38
2023-02-20T18:26:19.078Z,101665.78
2023-02-20T18:28:46.893Z,101656.88
2023-02-20T18:31:14.093Z,101672.91
2023-02-20T18:33:41.042Z,101675.53
2023-02-20T18:36:08.782Z,101674.66
2023-02-20T18:38:36.005Z,101671.16
2023-02-20T18:41:02.928Z,101682.75
2023-02-20T18:43:29.494Z,101670.28
2023-02-20T18:45:56.570Z,101665.81
2023-02-20T18:48:23.207Z,101664.09
2023-02-20T18:50:51.941Z,101655.16
2023-02-20T18:53:18.652Z,101654.34
2023-02-20T18:55:45.231Z,101663.19
2023-02-20T18:58:11.864Z,101657.00
2023-02-20T19:00:40.590Z,101663.25
2023-02-20T19:03:07.785Z,101659.69
2023-02-20T19:05:34.469Z,101660.59
2023-02-20T19:08:03.848Z,101655.25
2023-02-20T19:10:31.264Z,101652.47
2023-02-20T19:12:59.687Z,101653.41
2023-02-20T19:15:26.503Z,101645.44
2023-02-20T19:17:53.485Z,101649.91
2023-02-20T19:20:28.590Z,101651.66
2023-02-20T19:22:55.778Z,101642.69
2023-02-20T19:25:23.167Z,101640.03
2023-02-20T19:27:49.821Z,101640.03
2023-02-20T19:30:16.800Z,101640.94
2023-02-20T19:32:43.475Z,101636.41
2023-02-20T19:35:10.562Z,101632.88
2023-02-20T19:37:38.797Z,101634.66
2023-02-20T19:40:07.027Z,101638.25
2023-02-20T19:42:35.390Z,101631.09
2023-02-20T19:45:02.148Z,101629.34
2023-02-20T19:47:29.060Z,101630.22
2023-02-20T19:49:55.644Z,101634.69
2023-02-20T19:52:22.248Z,101630.22
2023-02-20T19:54:48.917Z,101635.56
2023-02-20T19:57:15.535Z,101627.53
2023-02-20T19:59:42.818Z,101628.44
2023-02-20T20:02:10.962Z,101631.09
2023-02-20T20:04:37.574Z,101634.66
2023-02-20T20:07:04.407Z,101640.00
2023-02-20T20:09:36.496Z,101637.28
2023-02-20T20:12:04.079Z,101637.28
2023-02-20T20:14:30.702Z,101641.75
2023-02-20T20:16:57.408Z,101639.94
2023-02-20T20:19:24.001Z,101641.72
2023-02-20T20:21:50.736Z,101638.13
2023-02-20T20:24:17.610Z,101642.56
2023-02-20T20:26:44.191Z,101623.84
2023-02-20T20:29:10.886Z,101627.44
2023-02-20T20:31:40.045Z,101628.34
2023-02-20T20:34:07.630Z,101629.25
2023-02-20T20:36:34.629Z,101618.53
2023-02-20T20:39:01.517Z,101619.41
2023-02-20T20:41:30.461Z,101625.63
2023-02-20T20:44:04.583Z,101632.75
2023-02-20T20:46:32.196Z,101632.75
2023-02-20T20:48:58.800Z,101637.19
2023-02-20T20:51:25.517Z,101635.41
2023-02-20T20:53:52.089Z,101632.75
2023-02-20T20:56:18.663Z,101637.19
2023-02-20T20:58:45.420Z,101638.09
2023-02-20T21:01:12.563Z,101635.41
2023-02-20T21:03:39.382Z,101634.50
2023-02-20T21:06:06.173Z,101636.31
2023-02-20T21:08:33.809Z,101638.91
2023-02-20T21:11:00.455Z,101643.41
2023-02-20T21:13:27.069Z,101641.59
2023-02-20T21:15:53.695Z,101626.47
2023-02-20T21:18:23.300Z,101636.31
2023-02-20T21:20:49.889Z,101638.03
2023-02-20T21:23:16.543Z,101635.38
2023-02-20T21:25:43.162Z,101643.38
2023-02-20T21:28:09.747Z,101647.81
2023-02-20T21:30:36.366Z,101648.75
2023-02-20T21:33:03.031Z,101645.16
2023-02-20T21:35:29.631Z,101646.94
2023-02-20T21:37:56.538Z,101653.16
2023-02-20T21:40:23.212Z,101646.03
2023-02-20T21:43:08.402Z,101649.59
2023-02-20T21:45:36.477Z,101640.72
2023-02-20T21:48:04.475Z,101645.16
2023-02-20T21:50:31.174Z,101645.16
2023-02-20T21:52:57.832Z,101636.28
2023-02-20T21:55:24.489Z,101631.81
2023-02-20T21:57:51.491Z,101636.25
2023-02-20T22:00:18.223Z,101639.81
2023-02-20T22:02:44.796Z,101634.47
2023-02-20T22:05:12.066Z,101630.94
2023-02-20T22:07:57.627Z,101632.69
2023-02-20T22:10:43.380Z,101634.47
2023-02-20T22:13:28.470Z,101629.16
2023-02-20T22:16:13.355Z,101625.59
2023-02-20T22:18:58.669Z,101632.66
2023-02-20T22:21:44.794Z,101632.69
2023-02-20T22:24:37.915Z,101632.72
2023-02-20T22:27:27.067Z,101642.47
2023-02-20T22:30:12.712Z,101631.75
2023-02-20T22:32:57.982Z,101639.75
2023-02-20T22:35:42.973Z,101628.22
2023-02-20T22:38:28.406Z,101638.81
2023-02-20T22:41:13.834Z,101641.44
2023-02-20T22:43:59.397Z,101643.22
2023-02-20T22:46:44.642Z,101642.31
2023-02-20T22:49:29.752Z,101629.84
2023-02-20T22:52:14.937Z,101636.06
2023-02-20T22:55:05.007Z,101629.81
2023-02-20T22:57:51.247Z,101623.59
2023-02-20T23:00:37.035Z,101628.03
2023-02-20T23:03:22.735Z,101629.78
2023-02-20T23:06:16.878Z,101628.94
2023-02-20T23:09:02.988Z,101636.00
2023-02-20T23:11:51.779Z,101634.22
2023-02-20T23:14:37.090Z,101630.59
2023-02-20T23:17:36.346Z,101633.25
2023-02-20T23:20:37.590Z,101628.84
2023-02-20T23:23:22.929Z,101634.16
2023-02-20T23:26:08.448Z,101632.41
2023-02-20T23:28:54.286Z,101630.53
2023-02-20T23:31:54.140Z,101628.75
2023-02-20T23:34:39.427Z,101631.53
2023-02-20T23:37:24.556Z,101635.06
2023-02-20T23:40:10.001Z,101634.16
2023-02-20T23:42:55.060Z,101630.59
2023-02-20T23:45:40.182Z,101637.66
2023-02-20T23:48:25.145Z,101641.28
2023-02-20T23:51:10.186Z,101646.53
2023-02-20T23:53:56.593Z,101639.41
2023-02-20T23:56:42.256Z,101647.41
2023-02-20T23:59:27.854Z,101643.00
